x

South Moresby (46147) Wave Buoy

2:00am - Wed 18th Jan 2017 All times are PST. -8 hours from GMT.

  • Sig Wave height 13.4ft
  • Peak Period 12s
  • Wind
    16mph, 18mph gusts
  • Sea Temp 47°f
  • Air Temp 47°f
  • Sea Pressure 971.5mb
  • South Moresby
  • South Moresby

More Historic Weather Station data

Upgrade to MSW Pro to gain access to the past 30 days of data for over 8000 Wavebouys and Weather Stations around the globe.

Join Pro

Comparision Forecast

View Surf forecast
   
Wed 01/18 2:00am 13.5ft 12s 16 18 mph 971.5mb 47f 47f
1:00am 13.5ft 12s 18 22 mph 971mb 47f 47f
12:00am 13.5ft 10s 13 20 mph 971.2mb 47f 47f
Tue 01/17 11:00pm 13.5ft 11s 11 13 mph 971.7mb 47f 47f
10:00pm 14.5ft 11s 16 18 mph 972.2mb 47f 47f
9:00pm 14ft 10s 16 20 mph 972.6mb 47f 47f
8:00pm 15ft 13s 18 22 mph 973.2mb 47f 47f
7:00pm 15.5ft 9s 25 34 mph 973.9mb 47f 47f
6:00pm 15.5ft 9s 27 34 mph 974.7mb 47f 47f
5:00pm 13.5ft 10s 27 34 mph 975.6mb 47f 46f
4:00pm 15ft 10s 27 34 mph 976.1mb 47f 46f
3:00pm 15.5ft 10s 25 29 mph 977.2mb 47f 47f
2:00pm  -   -  22
mph
- - 47f
1:00pm 15ft 11s 20 27 mph 979.1mb 47f 47f
12:00pm 15.5ft 15s 20 27 mph 979.8mb 47f 47f
11:00am 14ft 10s 22 31 mph 980.5mb 47f 47f
10:00am 15.5ft 16s 18 22 mph 980.4mb 47f 47f
9:00am 15.5ft 9s 16 18 mph 981.3mb 47f 47f
8:00am 15ft 10s 13 18 mph 981.7mb 47f 47f
7:00am 16.5ft 10s 13 22 mph 982.7mb 47f 47f
6:00am 16.5ft 9s 16 22 mph 983.7mb 47f 47f
5:00am 18ft 16s 18 25 mph 984.7mb 47f 48f
4:00am 19.5ft 16s 22 29 mph 985.9mb 47f 47f
3:00am 16.5ft 13s 22 29 mph 987.4mb 47f 48f
2:00am 18.5ft 16s 18 27 mph 988.5mb 47f 47f
1:00am 17.5ft 12s 20 29 mph 989.8mb 47f 47f
12:00am 20ft 14s 18 25 mph 991.5mb 47f 47f
Mon 01/16 11:00pm 20ft 17s 9 16 mph 992.8mb 47f 46f
10:00pm 22ft 17s 7 13 mph 993.3mb 47f 46f
9:00pm 22ft 15s 7 11 mph 994.2mb 47f 45f
8:00pm 21.5ft 16s 9 13 mph 993.4mb 47f 46f
7:00pm 20.5ft 15s 11 18 mph 993.3mb 47f 46f
6:00pm  -   -  11
mph
993.3mb - 47f
5:00pm 24ft 11s 9 16 mph 992mb 47f 47f
4:00pm 24.5ft 11s 13 20 mph 991.2mb 47f 47f
3:00pm 24ft 15s 13 18 mph 990mb 47f 47f
2:00pm 24.5ft 10s 13 18 mph 990.6mb 47f 47f
1:00pm 21.5ft 10s 18 22 mph 993.2mb 47f 47f
12:00pm 19.5ft 10s 25 34 mph 996.1mb 47f 47f
11:00am 18ft 9s 27 34 mph 999mb 47f 47f
10:00am 16.5ft 10s 25 31 mph 1001mb 47f 47f
9:00am 17.5ft 10s 22 27 mph 1002.8mb 47f 47f
8:00am 16.5ft 9s 27 34 mph 1003.9mb 47f 48f
7:00am 17.5ft 9s 25 29 mph 1004.2mb 47f 48f
6:00am 16.5ft 11s 25 34 mph 1004.8mb 47f 48f
5:00am 17.5ft 10s 22 27 mph 1005.7mb 47f 48f
4:00am 16.5ft 10s 20 27 mph 1006.6mb 47f 48f
3:00am 17.5ft 11s 20 25 mph 1007mb 47f 48f
2:00am 18.5ft 10s 25 34 mph 1006.6mb 47f 48f
1:00am 17.5ft 10s 29 36 mph 1006.2mb 47f 48f
12:00am 17.5ft 10s 31 38 mph 1006mb 47f 48f
Sun 01/15 11:00pm 18ft 10s 34 43 mph 1006.3mb 47f 47f
10:00pm 18ft 9s 34 40 mph 1007.4mb 47f 47f
9:00pm 17.5ft 8s 34 40 mph 1007.9mb 47f 47f
8:00pm 16.5ft 8s 34 43 mph 1008.5mb 47f 47f
7:00pm 17ft 8s 36 47 mph 1008.8mb 47f 46f
6:00pm 17ft 15s 36 47 mph 1009mb 47f 46f
5:00pm 16.5ft 15s 36 43 mph 1010mb 47f 46f
4:00pm 15.5ft 14s 31 43 mph 1011.2mb 47f 47f
3:00pm 14.5ft 12s 31 38 mph 1012.2mb 47f 47f
2:00pm  -   -  27
mph
1012.6mb 47f 47f
1:00pm 13.5ft 16s 25 29 mph 1014.7mb 47f 46f
12:00pm 13.5ft 14s 25 31 mph 1016.3mb 47f 46f
11:00am 13.5ft 16s 22 29 mph 1017mb 47f 46f
10:00am 12ft 16s 22 29 mph 1017mb 47f 46f
9:00am 12ft 14s 16 20 mph 1017.5mb 47f 45f
8:00am 13ft 17s 16 22 mph 1017.4mb 47f 47f
7:00am 13ft 12s 16 18 mph 1018.2mb 47f 47f
6:00am 12.5ft 10s 7 13 mph 1018.4mb 47f 46f
5:00am 13ft 12s 9 13 mph 1018.5mb 47f 46f
4:00am 14.5ft 12s 11 16 mph 1019mb 47f 46f
3:00am 13.5ft 11s 13 16 mph 1018.8mb 47f 46f
2:00am 13ft 12s 18 22 mph 1018.1mb 47f 47f
1:00am 14ft 12s 13 20 mph 1018.2mb 47f 47f
12:00am 12.5ft 12s 13 18 mph 1018.1mb 47f 46f
Sat 01/14 10:00pm 13.5ft 11s 18 25 mph 1017.8mb 47f 47f
9:00pm 12.5ft 10s 16 20 mph 1017.2mb 47f 47f
8:00pm 14ft 10s 16 20 mph 1017.2mb 47f 46f
7:00pm 14ft 12s 13
mph
1016.8mb 47f 46f
6:00pm 14.5ft 12s 16 20 mph 1016.5mb 47f 47f
5:00pm 15.5ft 9s 16 20 mph 1016mb 47f 47f
4:00pm 14.5ft 8s 18 22 mph 1016.6mb 47f 47f
3:00pm 15.5ft 8s 18 25 mph 1015.9mb 47f 47f
2:00pm 16ft 9s 20 27 mph 1016.1mb 47f 47f
1:00pm 16.5ft 8s 22 29 mph 1016.7mb 47f 47f
12:00pm 16ft 11s 27 31 mph 1016.6mb 47f 47f